createdAt,value
2017-01-13T00:00:03.701Z,1007.1
2017-01-13T00:00:44.286Z,1007.08
2017-01-13T00:01:24.885Z,1007.13
2017-01-13T00:02:05.458Z,1007.21
2017-01-13T00:02:46.058Z,1007.27
2017-01-13T00:03:26.651Z,1007.25
2017-01-13T00:04:07.239Z,1007.28
2017-01-13T00:04:47.843Z,1007.26
2017-01-13T00:05:28.441Z,1007.3
2017-01-13T00:06:09.054Z,1007.3
2017-01-13T00:06:49.656Z,1007.23
2017-01-13T00:07:30.236Z,1007.21
2017-01-13T00:08:10.835Z,1007.18
2017-01-13T00:08:51.428Z,1007.19
2017-01-13T00:09:32.036Z,1007.11
2017-01-13T00:10:12.613Z,1007.08
2017-01-13T00:10:53.200Z,1007.07
2017-01-13T00:11:33.792Z,1007.02
2017-01-13T00:12:14.393Z,1007.02
2017-01-13T00:12:54.971Z,1007.04
2017-01-13T00:13:35.557Z,1007.08
2017-01-13T00:14:16.152Z,1007.06
2017-01-13T00:14:56.726Z,1007.04
2017-01-13T00:15:37.313Z,1007.05
2017-01-13T00:16:17.917Z,1007.07
2017-01-13T00:16:58.505Z,1007.06
2017-01-13T00:17:39.102Z,1007.06
2017-01-13T00:18:19.691Z,1007.04
2017-01-13T00:19:00.298Z,1007.05
2017-01-13T00:19:40.892Z,1007.07
2017-01-13T00:20:21.477Z,1007.04
2017-01-13T00:21:02.060Z,1007.05
2017-01-13T00:21:42.645Z,1007.05
2017-01-13T00:22:23.239Z,1007.02
2017-01-13T00:23:03.834Z,1007.04
2017-01-13T00:23:44.425Z,1007.02
2017-01-13T00:24:25.007Z,1007.01
2017-01-13T00:25:05.603Z,1006.98
2017-01-13T00:25:46.183Z,1006.98
2017-01-13T00:26:26.803Z,1006.96
2017-01-13T00:27:07.390Z,1006.93
2017-01-13T00:27:47.987Z,1006.93
2017-01-13T00:28:28.564Z,1006.93
2017-01-13T00:29:09.142Z,1006.92
2017-01-13T00:29:49.741Z,1006.9
2017-01-13T00:30:30.320Z,1006.88
2017-01-13T00:31:10.904Z,1006.89
2017-01-13T00:31:51.507Z,1006.88
2017-01-13T00:32:32.089Z,1006.88
2017-01-13T00:33:12.688Z,1006.89
2017-01-13T00:33:53.275Z,1006.83
2017-01-13T00:34:33.859Z,1006.89
2017-01-13T00:35:14.446Z,1006.85
2017-01-13T00:35:55.067Z,1006.9
2017-01-13T00:36:35.680Z,1006.9
2017-01-13T00:37:16.272Z,1006.91
2017-01-13T00:37:56.872Z,1006.93
2017-01-13T00:38:37.460Z,1006.95
2017-01-13T00:39:18.064Z,1006.95
2017-01-13T00:39:58.657Z,1006.96
2017-01-13T00:40:39.251Z,1006.94
2017-01-13T00:41:19.845Z,1006.93
2017-01-13T00:42:00.437Z,1006.94
2017-01-13T00:42:41.039Z,1006.93
2017-01-13T00:43:21.628Z,1006.88
2017-01-13T00:44:02.221Z,1006.9
2017-01-13T00:44:42.795Z,1006.89
2017-01-13T00:45:23.390Z,1006.88
2017-01-13T00:46:03.985Z,1006.83
2017-01-13T00:46:44.584Z,1006.85
2017-01-13T00:47:25.186Z,1006.8
2017-01-13T00:48:05.780Z,1006.78
2017-01-13T00:48:46.382Z,1006.77
2017-01-13T00:49:27.000Z,1006.75
2017-01-13T00:50:07.617Z,1006.75
2017-01-13T00:50:48.209Z,1006.76
2017-01-13T00:51:28.817Z,1006.76
2017-01-13T00:52:09.410Z,1006.79
2017-01-13T00:52:49.991Z,1006.78
2017-01-13T00:53:30.609Z,1006.74
2017-01-13T00:54:11.188Z,1006.71
2017-01-13T00:54:51.778Z,1006.73
2017-01-13T00:55:32.389Z,1006.71
2017-01-13T00:56:12.965Z,1006.72
2017-01-13T00:56:53.567Z,1006.68
2017-01-13T00:57:34.165Z,1006.68
2017-01-13T00:58:14.758Z,1006.68
2017-01-13T00:58:55.389Z,1006.66
2017-01-13T00:59:35.990Z,1006.7
2017-01-13T01:00:16.609Z,1006.7
2017-01-13T01:00:57.186Z,1006.64
2017-01-13T01:01:37.843Z,1006.63
2017-01-13T01:02:18.452Z,1006.66
2017-01-13T01:02:59.058Z,1006.62
2017-01-13T01:03:39.644Z,1006.64
2017-01-13T01:04:20.226Z,1006.62
2017-01-13T01:05:00.884Z,1006.63
2017-01-13T01:05:41.486Z,1006.62
2017-01-13T01:06:22.082Z,1006.64
2017-01-13T01:07:02.682Z,1006.64
2017-01-13T01:07:43.275Z,1006.66
2017-01-13T01:08:23.884Z,1006.67
2017-01-13T01:09:04.483Z,1006.63
2017-01-13T01:09:45.058Z,1006.64
2017-01-13T01:10:25.663Z,1006.62
2017-01-13T01:11:06.234Z,1006.6
2017-01-13T01:11:46.822Z,1006.58
2017-01-13T01:12:27.413Z,1006.62
2017-01-13T01:13:07.995Z,1006.66
2017-01-13T01:13:48.594Z,1006.64
2017-01-13T01:14:29.212Z,1006.7
2017-01-13T01:15:09.794Z,1006.69
2017-01-13T01:15:50.387Z,1006.71
2017-01-13T01:16:30.995Z,1006.71
2017-01-13T01:17:11.591Z,1006.71
2017-01-13T01:17:52.188Z,1006.76
2017-01-13T01:18:32.793Z,1006.73
2017-01-13T01:19:13.379Z,1006.76
2017-01-13T01:19:53.958Z,1006.75
2017-01-13T01:20:34.552Z,1006.77
2017-01-13T01:21:15.140Z,1006.75
2017-01-13T01:21:55.745Z,1006.77
2017-01-13T01:22:36.345Z,1006.77
2017-01-13T01:23:16.978Z,1006.72
2017-01-13T01:23:57.572Z,1006.72
2017-01-13T01:24:38.171Z,1006.7
2017-01-13T01:25:18.767Z,1006.68
2017-01-13T01:25:59.359Z,1006.7
2017-01-13T01:26:39.968Z,1006.69
2017-01-13T01:27:20.572Z,1006.69
2017-01-13T01:28:01.162Z,1006.69
2017-01-13T01:28:41.763Z,1006.7
2017-01-13T01:29:22.353Z,1006.69
2017-01-13T01:30:02.965Z,1006.7
2017-01-13T01:30:43.566Z,1006.68
2017-01-13T01:31:24.194Z,1006.67
2017-01-13T01:32:04.797Z,1006.66
2017-01-13T01:32:45.394Z,1006.63
2017-01-13T01:33:25.989Z,1006.72
2017-01-13T01:34:06.590Z,1006.66
2017-01-13T01:34:47.167Z,1006.69
2017-01-13T01:35:27.756Z,1006.7
2017-01-13T01:36:08.361Z,1006.69
2017-01-13T01:36:48.945Z,1006.73
2017-01-13T01:37:29.527Z,1006.72
2017-01-13T01:38:10.114Z,1006.72
2017-01-13T01:38:50.701Z,1006.72
2017-01-13T01:39:31.288Z,1006.75
2017-01-13T01:40:11.868Z,1006.76
2017-01-13T01:40:52.454Z,1006.72
2017-01-13T01:41:33.042Z,1006.73
2017-01-13T01:42:13.630Z,1006.72
2017-01-13T01:42:54.230Z,1006.7
2017-01-13T01:43:34.822Z,1006.66
2017-01-13T01:44:15.425Z,1006.67
2017-01-13T01:44:56.023Z,1006.67
2017-01-13T01:45:36.633Z,1006.64
2017-01-13T01:46:17.208Z,1006.63
2017-01-13T01:46:57.798Z,1006.62
2017-01-13T01:47:38.407Z,1006.64
2017-01-13T01:48:19.027Z,1006.64
2017-01-13T01:48:59.615Z,1006.62
2017-01-13T01:49:40.215Z,1006.64
2017-01-13T01:50:20.799Z,1006.62
2017-01-13T01:51:01.394Z,1006.61
2017-01-13T01:51:41.986Z,1006.64
2017-01-13T01:52:22.573Z,1006.63
2017-01-13T01:53:03.166Z,1006.58
2017-01-13T01:53:43.758Z,1006.61
2017-01-13T01:54:24.339Z,1006.6
2017-01-13T01:55:04.911Z,1006.59
2017-01-13T01:55:45.496Z,1006.59
2017-01-13T01:56:26.100Z,1006.62
2017-01-13T01:57:06.724Z,1006.57
2017-01-13T01:57:47.371Z,1006.58
2017-01-13T01:58:27.983Z,1006.6
2017-01-13T01:59:08.576Z,1006.62
2017-01-13T01:59:49.160Z,1006.56
2017-01-13T02:00:29.767Z,1006.54
2017-01-13T02:01:10.375Z,1006.54
2017-01-13T02:01:50.972Z,1006.52
2017-01-13T02:02:31.560Z,1006.53
2017-01-13T02:03:12.143Z,1006.53
2017-01-13T02:03:52.734Z,1006.52
2017-01-13T02:04:33.323Z,1006.52
2017-01-13T02:05:13.915Z,1006.53
2017-01-13T02:05:54.498Z,1006.5
2017-01-13T02:06:35.075Z,1006.51
2017-01-13T02:07:15.663Z,1006.47
2017-01-13T02:07:56.275Z,1006.48
2017-01-13T02:08:36.874Z,1006.5
2017-01-13T02:09:17.497Z,1006.45
2017-01-13T02:09:58.100Z,1006.46
2017-01-13T02:10:38.694Z,1006.41
2017-01-13T02:11:19.298Z,1006.42
2017-01-13T02:11:59.874Z,1006.4
2017-01-13T02:12:40.458Z,1006.43
2017-01-13T02:13:21.050Z,1006.43
2017-01-13T02:14:01.627Z,1006.39
2017-01-13T02:14:42.207Z,1006.41
2017-01-13T02:15:22.787Z,1006.45
2017-01-13T02:16:03.379Z,1006.46
2017-01-13T02:16:43.954Z,1006.45
2017-01-13T02:17:24.549Z,1006.43
2017-01-13T02:18:05.167Z,1006.44
2017-01-13T02:18:45.746Z,1006.42
2017-01-13T02:19:26.340Z,1006.44
2017-01-13T02:20:06.970Z,1006.41
2017-01-13T02:20:47.573Z,1006.42
2017-01-13T02:21:28.155Z,1006.4
2017-01-13T02:22:08.764Z,1006.38
2017-01-13T02:22:49.346Z,1006.41
2017-01-13T02:23:29.949Z,1006.4
2017-01-13T02:24:10.529Z,1006.39
2017-01-13T02:24:51.132Z,1006.38
2017-01-13T02:25:31.726Z,1006.45
2017-01-13T02:26:12.351Z,1006.46
2017-01-13T02:26:52.925Z,1006.49
2017-01-13T02:27:33.514Z,1006.46
2017-01-13T02:28:14.108Z,1006.49
2017-01-13T02:28:54.692Z,1006.51
2017-01-13T02:29:35.281Z,1006.5
2017-01-13T02:30:15.865Z,1006.51
2017-01-13T02:30:56.458Z,1006.47
2017-01-13T02:31:37.061Z,1006.44
2017-01-13T02:32:17.665Z,1006.41
2017-01-13T02:32:58.265Z,1006.41
2017-01-13T02:33:38.853Z,1006.36
2017-01-13T02:34:19.459Z,1006.34
2017-01-13T02:35:00.052Z,1006.33
2017-01-13T02:35:40.629Z,1006.32
2017-01-13T02:36:21.227Z,1006.33
2017-01-13T02:37:01.805Z,1006.31
2017-01-13T02:37:42.389Z,1006.34
2017-01-13T02:38:22.978Z,1006.33
2017-01-13T02:39:03.563Z,1006.38
2017-01-13T02:39:44.156Z,1006.37
2017-01-13T02:40:24.736Z,1006.41
2017-01-13T02:41:05.344Z,1006.41
2017-01-13T02:41:45.946Z,1006.4
2017-01-13T02:42:26.539Z,1006.39
2017-01-13T02:43:07.135Z,1006.45
2017-01-13T02:43:47.735Z,1006.43
2017-01-13T02:44:28.319Z,1006.43
2017-01-13T02:45:08.912Z,1006.46
2017-01-13T02:45:49.545Z,1006.45
2017-01-13T02:46:30.141Z,1006.49
2017-01-13T02:47:10.728Z,1006.46
2017-01-13T02:47:51.321Z,1006.47
2017-01-13T02:48:31.916Z,1006.45
2017-01-13T02:49:12.576Z,1006.44
2017-01-13T02:49:53.176Z,1006.45
2017-01-13T02:50:34.084Z,1006.4
2017-01-13T02:51:15.029Z,1006.4
2017-01-13T02:51:55.817Z,1006.39
2017-01-13T02:52:36.452Z,1006.41
2017-01-13T02:53:17.080Z,1006.38
2017-01-13T02:53:57.663Z,1006.39
2017-01-13T02:54:38.244Z,1006.37
2017-01-13T02:55:18.843Z,1006.38
2017-01-13T02:55:59.455Z,1006.4
2017-01-13T02:56:40.033Z,1006.39
2017-01-13T02:57:20.646Z,1006.4
2017-01-13T02:58:01.251Z,1006.4
2017-01-13T02:58:41.847Z,1006.4
2017-01-13T02:59:22.442Z,1006.34
2017-01-13T03:00:03.039Z,1006.36
2017-01-13T03:00:43.626Z,1006.38
2017-01-13T03:01:24.232Z,1006.38
2017-01-13T03:02:04.826Z,1006.37
2017-01-13T03:02:45.421Z,1006.37
2017-01-13T03:03:26.007Z,1006.41
2017-01-13T03:04:06.608Z,1006.4
2017-01-13T03:04:47.182Z,1006.41
2017-01-13T03:05:27.783Z,1006.42
2017-01-13T03:06:08.367Z,1006.43
2017-01-13T03:06:48.953Z,1006.42
2017-01-13T03:07:29.545Z,1006.4
2017-01-13T03:08:10.151Z,1006.37
2017-01-13T03:08:50.709Z,1006.36
2017-01-13T03:09:31.312Z,1006.35
2017-01-13T03:10:11.900Z,1006.42
2017-01-13T03:10:52.518Z,1006.4
2017-01-13T03:11:33.071Z,1006.43
2017-01-13T03:12:13.675Z,1006.42
2017-01-13T03:12:54.259Z,1006.4
2017-01-13T03:13:34.844Z,1006.37
2017-01-13T03:14:15.429Z,1006.37
2017-01-13T03:14:56.008Z,1006.39
2017-01-13T03:15:36.600Z,1006.36
2017-01-13T03:16:17.185Z,1006.41
2017-01-13T03:16:57.786Z,1006.39
2017-01-13T03:17:38.396Z,1006.4
2017-01-13T03:18:18.990Z,1006.36
2017-01-13T03:18:59.594Z,1006.35
2017-01-13T03:19:40.210Z,1006.39
2017-01-13T03:20:20.797Z,1006.36
2017-01-13T03:21:01.400Z,1006.35
2017-01-13T03:21:42.015Z,1006.29
2017-01-13T03:22:22.614Z,1006.33
2017-01-13T03:23:03.208Z,1006.34
2017-01-13T03:23:43.796Z,1006.33
2017-01-13T03:24:24.391Z,1006.33
2017-01-13T03:25:04.985Z,1006.31
2017-01-13T03:25:45.570Z,1006.31
2017-01-13T03:26:26.161Z,1006.31
2017-01-13T03:27:06.758Z,1006.3
2017-01-13T03:27:47.368Z,1006.36
2017-01-13T03:28:28.004Z,1006.36
2017-01-13T03:29:08.593Z,1006.36
2017-01-13T03:29:49.209Z,1006.35
2017-01-13T03:30:29.795Z,1006.37
2017-01-13T03:31:10.399Z,1006.34
2017-01-13T03:31:50.997Z,1006.37
2017-01-13T03:32:31.594Z,1006.41
2017-01-13T03:33:12.180Z,1006.38
2017-01-13T03:33:52.784Z,1006.4
2017-01-13T03:34:33.442Z,1006.41
2017-01-13T03:35:14.055Z,1006.39
2017-01-13T03:35:54.662Z,1006.36
2017-01-13T03:36:35.255Z,1006.38
2017-01-13T03:37:15.857Z,1006.36
2017-01-13T03:37:56.456Z,1006.32
2017-01-13T03:38:37.046Z,1006.31
2017-01-13T03:39:17.652Z,1006.32
2017-01-13T03:39:58.254Z,1006.33
2017-01-13T03:40:38.838Z,1006.35
2017-01-13T03:41:19.411Z,1006.34
2017-01-13T03:42:00.033Z,1006.36
2017-01-13T03:42:40.625Z,1006.34
2017-01-13T03:43:21.232Z,1006.38
2017-01-13T03:44:01.840Z,1006.35
2017-01-13T03:44:42.443Z,1006.31
2017-01-13T03:45:23.058Z,1006.32
2017-01-13T03:46:03.684Z,1006.31
2017-01-13T03:46:44.269Z,1006.35
2017-01-13T03:47:24.894Z,1006.35
2017-01-13T03:48:05.548Z,1006.36
2017-01-13T03:48:46.131Z,1006.36
2017-01-13T03:49:26.741Z,1006.38
2017-01-13T03:50:07.313Z,1006.37
2017-01-13T03:50:47.901Z,1006.33
2017-01-13T03:51:28.485Z,1006.39
2017-01-13T03:52:09.076Z,1006.39
2017-01-13T03:52:49.702Z,1006.42
2017-01-13T03:53:30.294Z,1006.41
2017-01-13T03:54:10.910Z,1006.36
2017-01-13T03:54:51.505Z,1006.36
2017-01-13T03:55:32.123Z,1006.35
2017-01-13T03:56:12.710Z,1006.33
2017-01-13T03:56:53.329Z,1006.32
2017-01-13T03:57:33.955Z,1006.3
2017-01-13T03:58:14.569Z,1006.35
2017-01-13T03:58:55.175Z,1006.32
2017-01-13T03:59:35.768Z,1006.35
2017-01-13T04:00:16.385Z,1006.32
2017-01-13T04:00:56.975Z,1006.33
2017-01-13T04:01:38.175Z,1006.32
2017-01-13T04:02:18.172Z,1006.3
2017-01-13T04:02:58.769Z,1006.34
2017-01-13T04:03:39.367Z,1006.34
2017-01-13T04:04:19.997Z,1006.31
2017-01-13T04:05:00.584Z,1006.34
2017-01-13T04:05:41.174Z,1006.36
2017-01-13T04:06:21.792Z,1006.38
2017-01-13T04:07:02.378Z,1006.39
2017-01-13T04:07:42.972Z,1006.38
2017-01-13T04:08:23.554Z,1006.42
2017-01-13T04:09:04.144Z,1006.45
2017-01-13T04:09:44.736Z,1006.47
2017-01-13T04:10:25.349Z,1006.46
2017-01-13T04:11:05.929Z,1006.51
2017-01-13T04:11:46.534Z,1006.53
2017-01-13T04:12:27.185Z,1006.55
2017-01-13T04:13:07.760Z,1006.56
2017-01-13T04:13:48.352Z,1006.56
2017-01-13T04:14:28.950Z,1006.57
2017-01-13T04:15:09.546Z,1006.52
2017-01-13T04:15:50.159Z,1006.55
2017-01-13T04:16:30.748Z,1006.52
2017-01-13T04:17:11.358Z,1006.49
2017-01-13T04:17:51.944Z,1006.48
2017-01-13T04:18:32.528Z,1006.46
2017-01-13T04:19:13.115Z,1006.43
2017-01-13T04:19:53.720Z,1006.46
2017-01-13T04:20:34.316Z,1006.41
2017-01-13T04:21:14.923Z,1006.42
2017-01-13T04:21:55.534Z,1006.42
2017-01-13T04:22:36.125Z,1006.43
2017-01-13T04:23:16.721Z,1006.41
2017-01-13T04:23:57.327Z,1006.45
2017-01-13T04:24:37.988Z,1006.43
2017-01-13T04:25:18.581Z,1006.43
2017-01-13T04:25:59.185Z,1006.41
2017-01-13T04:26:39.780Z,1006.42
2017-01-13T04:27:20.388Z,1006.39
2017-01-13T04:28:00.986Z,1006.42
2017-01-13T04:28:41.592Z,1006.39
2017-01-13T04:29:22.197Z,1006.36
2017-01-13T04:30:02.798Z,1006.33
2017-01-13T04:30:43.397Z,1006.31
2017-01-13T04:31:23.994Z,1006.28
2017-01-13T04:32:04.614Z,1006.3
2017-01-13T04:32:45.206Z,1006.26
2017-01-13T04:33:25.814Z,1006.25
2017-01-13T04:34:06.403Z,1006.21
2017-01-13T04:34:47.011Z,1006.27
2017-01-13T04:35:27.615Z,1006.26
2017-01-13T04:36:08.200Z,1006.3
2017-01-13T04:36:48.791Z,1006.26
2017-01-13T04:37:29.391Z,1006.21
2017-01-13T04:38:10.007Z,1006.26
2017-01-13T04:38:50.607Z,1006.26
2017-01-13T04:39:32.011Z,1006.25
2017-01-13T04:40:12.601Z,1006.26
2017-01-13T04:40:53.211Z,1006.25
2017-01-13T04:41:33.803Z,1006.31
2017-01-13T04:42:14.395Z,1006.35
2017-01-13T04:42:54.978Z,1006.35
2017-01-13T04:43:35.566Z,1006.38
2017-01-13T04:44:16.144Z,1006.33
2017-01-13T04:44:56.730Z,1006.4
2017-01-13T04:45:37.312Z,1006.39
2017-01-13T04:46:17.893Z,1006.39
2017-01-13T04:46:58.479Z,1006.43
2017-01-13T04:47:39.065Z,1006.42
2017-01-13T04:48:19.652Z,1006.42
2017-01-13T04:49:00.242Z,1006.38
2017-01-13T04:49:40.844Z,1006.38
2017-01-13T04:50:21.434Z,1006.38
2017-01-13T04:51:02.019Z,1006.36
2017-01-13T04:51:42.601Z,1006.34
2017-01-13T04:52:23.185Z,1006.36
2017-01-13T04:53:03.772Z,1006.35
2017-01-13T04:53:44.374Z,1006.33
2017-01-13T04:54:24.944Z,1006.35
2017-01-13T04:55:05.535Z,1006.38
2017-01-13T04:55:46.137Z,1006.38
2017-01-13T04:56:26.710Z,1006.37
2017-01-13T04:57:07.297Z,1006.37
2017-01-13T04:57:47.873Z,1006.35
2017-01-13T04:58:28.501Z,1006.33
2017-01-13T04:59:09.084Z,1006.32
2017-01-13T04:59:49.671Z,1006.33
2017-01-13T05:00:30.283Z,1006.34
2017-01-13T05:01:10.879Z,1006.33
2017-01-13T05:01:51.497Z,1006.34
2017-01-13T05:02:32.121Z,1006.35
2017-01-13T05:03:12.725Z,1006.35
2017-01-13T05:03:53.334Z,1006.3
2017-01-13T05:04:33.917Z,1006.31
2017-01-13T05:05:14.518Z,1006.3
2017-01-13T05:05:55.125Z,1006.26
2017-01-13T05:06:35.709Z,1006.27
2017-01-13T05:07:16.298Z,1006.28
2017-01-13T05:07:56.882Z,1006.27
2017-01-13T05:08:37.486Z,1006.3
2017-01-13T05:09:18.078Z,1006.3
2017-01-13T05:09:58.681Z,1006.34
2017-01-13T05:10:39.287Z,1006.32
2017-01-13T05:11:19.890Z,1006.32
2017-01-13T05:12:00.506Z,1006.34
2017-01-13T05:12:41.101Z,1006.35
2017-01-13T05:13:21.687Z,1006.33
2017-01-13T05:14:02.301Z,1006.35
2017-01-13T05:14:42.901Z,1006.37
2017-01-13T05:15:23.502Z,1006.35
2017-01-13T05:16:04.090Z,1006.33
2017-01-13T05:16:44.676Z,1006.29
2017-01-13T05:17:25.287Z,1006.34
2017-01-13T05:18:05.868Z,1006.35
2017-01-13T05:18:46.459Z,1006.36
2017-01-13T05:19:27.062Z,1006.36
2017-01-13T05:20:07.657Z,1006.35
2017-01-13T05:20:48.269Z,1006.37
2017-01-13T05:21:28.853Z,1006.34
2017-01-13T05:22:09.448Z,1006.37
2017-01-13T05:22:50.035Z,1006.39
2017-01-13T05:23:30.634Z,1006.38
2017-01-13T05:24:11.246Z,1006.41
2017-01-13T05:24:51.846Z,1006.42
2017-01-13T05:25:32.427Z,1006.4
2017-01-13T05:26:13.019Z,1006.41
2017-01-13T05:26:53.637Z,1006.43
2017-01-13T05:27:34.226Z,1006.44
2017-01-13T05:28:14.845Z,1006.49
2017-01-13T05:28:55.457Z,1006.51
2017-01-13T05:29:36.095Z,1006.51
2017-01-13T05:30:16.688Z,1006.51
2017-01-13T05:30:57.289Z,1006.52
2017-01-13T05:31:37.917Z,1006.56
2017-01-13T05:32:18.555Z,1006.57
2017-01-13T05:32:59.152Z,1006.57
2017-01-13T05:33:39.760Z,1006.52
2017-01-13T05:34:20.362Z,1006.55
2017-01-13T05:35:00.975Z,1006.58
2017-01-13T05:35:41.583Z,1006.51
2017-01-13T05:36:22.161Z,1006.53
2017-01-13T05:37:02.763Z,1006.56
2017-01-13T05:37:45.004Z,1006.56
2017-01-13T05:38:25.573Z,1006.58
2017-01-13T05:39:06.162Z,1006.56
2017-01-13T05:39:46.772Z,1006.59
2017-01-13T05:40:27.358Z,1006.57
2017-01-13T05:41:07.970Z,1006.6
2017-01-13T05:41:48.581Z,1006.61
2017-01-13T05:42:29.173Z,1006.58
2017-01-13T05:43:09.765Z,1006.58
2017-01-13T05:43:50.359Z,1006.57
2017-01-13T05:44:30.946Z,1006.59
2017-01-13T05:45:11.555Z,1006.56
2017-01-13T05:45:52.151Z,1006.56
2017-01-13T05:46:32.756Z,1006.59
2017-01-13T05:47:13.341Z,1006.57
2017-01-13T05:47:53.932Z,1006.59
2017-01-13T05:48:34.518Z,1006.6
2017-01-13T05:49:15.094Z,1006.62
2017-01-13T05:49:55.686Z,1006.64
2017-01-13T05:50:36.279Z,1006.65
2017-01-13T05:51:16.873Z,1006.63
2017-01-13T05:51:57.474Z,1006.61
2017-01-13T05:52:38.093Z,1006.64
2017-01-13T05:53:18.708Z,1006.67
2017-01-13T05:53:59.297Z,1006.63
2017-01-13T05:54:39.885Z,1006.64
2017-01-13T05:55:20.472Z,1006.64
2017-01-13T05:56:01.068Z,1006.61
2017-01-13T05:56:41.660Z,1006.62
2017-01-13T05:57:22.252Z,1006.6
2017-01-13T05:58:02.841Z,1006.59
2017-01-13T05:58:43.443Z,1006.59
2017-01-13T05:59:24.041Z,1006.58
2017-01-13T06:00:04.650Z,1006.57
2017-01-13T06:00:45.247Z,1006.6
2017-01-13T06:01:25.837Z,1006.61
2017-01-13T06:02:06.464Z,1006.59
2017-01-13T06:02:47.046Z,1006.6
2017-01-13T06:03:27.633Z,1006.61
2017-01-13T06:04:08.259Z,1006.61
2017-01-13T06:04:48.848Z,1006.61
2017-01-13T06:05:29.449Z,1006.6
2017-01-13T06:06:10.007Z,1006.63
2017-01-13T06:06:50.621Z,1006.63
2017-01-13T06:07:31.212Z,1006.64
2017-01-13T06:08:11.805Z,1006.66
2017-01-13T06:08:52.404Z,1006.69
2017-01-13T06:09:32.997Z,1006.66
2017-01-13T06:10:13.598Z,1006.68
2017-01-13T06:10:55.142Z,1006.7
2017-01-13T06:11:36.702Z,1006.67
2017-01-13T06:12:17.314Z,1006.68
2017-01-13T06:12:57.948Z,1006.69
2017-01-13T06:13:38.551Z,1006.68
2017-01-13T06:14:19.199Z,1006.68
2017-01-13T06:14:59.804Z,1006.63
2017-01-13T06:15:40.389Z,1006.66
2017-01-13T06:16:20.989Z,1006.62
2017-01-13T06:17:01.607Z,1006.62
2017-01-13T06:17:42.243Z,1006.61
2017-01-13T06:18:22.823Z,1006.63
2017-01-13T06:19:03.418Z,1006.65
2017-01-13T06:19:44.012Z,1006.65
2017-01-13T06:20:24.587Z,1006.67
2017-01-13T06:21:05.171Z,1006.69
2017-01-13T06:21:45.751Z,1006.67
2017-01-13T06:22:26.353Z,1006.66
2017-01-13T06:23:06.978Z,1006.69
2017-01-13T06:23:47.576Z,1006.69
2017-01-13T06:24:28.196Z,1006.72
2017-01-13T06:25:08.796Z,1006.71
2017-01-13T06:25:49.405Z,1006.74
2017-01-13T06:26:29.996Z,1006.71
2017-01-13T06:27:10.630Z,1006.76
2017-01-13T06:27:51.228Z,1006.77
2017-01-13T06:28:31.819Z,1006.81
2017-01-13T06:29:12.417Z,1006.8
2017-01-13T06:29:53.011Z,1006.83
2017-01-13T06:30:33.594Z,1006.83
2017-01-13T06:31:14.187Z,1006.84
2017-01-13T06:31:54.783Z,1006.81
2017-01-13T06:32:35.376Z,1006.83
2017-01-13T06:33:15.968Z,1006.81
2017-01-13T06:33:56.580Z,1006.85
2017-01-13T06:34:37.166Z,1006.85
2017-01-13T06:35:17.771Z,1006.83
2017-01-13T06:35:58.360Z,1006.88
2017-01-13T06:36:38.944Z,1006.92
2017-01-13T06:37:19.543Z,1006.88
2017-01-13T06:38:00.187Z,1006.92
2017-01-13T06:38:40.776Z,1006.93
2017-01-13T06:39:21.377Z,1006.91
2017-01-13T06:40:02.014Z,1006.92
2017-01-13T06:40:42.604Z,1006.92
2017-01-13T06:41:23.188Z,1006.92
2017-01-13T06:42:03.798Z,1006.94
2017-01-13T06:42:44.394Z,1006.95
2017-01-13T06:43:25.000Z,1006.94
2017-01-13T06:44:05.595Z,1007.03
2017-01-13T06:44:46.214Z,1007.07
2017-01-13T06:45:26.810Z,1007.07
2017-01-13T06:46:07.431Z,1007.1
2017-01-13T06:46:48.001Z,1007.08
2017-01-13T06:47:28.621Z,1007.1
2017-01-13T06:48:09.252Z,1007.15
2017-01-13T06:48:49.864Z,1007.13
2017-01-13T06:49:30.441Z,1007.18
2017-01-13T06:50:11.063Z,1007.18
2017-01-13T06:50:51.717Z,1007.16
2017-01-13T06:51:32.338Z,1007.2
2017-01-13T06:52:12.929Z,1007.21
2017-01-13T06:52:53.519Z,1007.18
2017-01-13T06:53:34.114Z,1007.19
2017-01-13T06:54:14.730Z,1007.21
2017-01-13T06:54:56.068Z,1007.24
2017-01-13T06:55:36.653Z,1007.27
2017-01-13T06:56:17.273Z,1007.28
2017-01-13T06:56:57.895Z,1007.26
2017-01-13T06:57:38.489Z,1007.26
2017-01-13T06:58:19.107Z,1007.33
2017-01-13T06:58:59.719Z,1007.32
2017-01-13T06:59:40.303Z,1007.33
2017-01-13T07:00:20.913Z,1007.29
2017-01-13T07:01:01.508Z,1007.28
2017-01-13T07:01:42.101Z,1007.28
2017-01-13T07:02:22.693Z,1007.3
2017-01-13T07:03:03.300Z,1007.34
2017-01-13T07:03:43.900Z,1007.3
2017-01-13T07:04:24.491Z,1007.31
2017-01-13T07:05:05.096Z,1007.35
2017-01-13T07:05:45.704Z,1007.34
2017-01-13T07:06:26.283Z,1007.39
2017-01-13T07:07:06.896Z,1007.45
2017-01-13T07:07:47.493Z,1007.48
2017-01-13T07:08:28.078Z,1007.47
2017-01-13T07:09:08.664Z,1007.5
2017-01-13T07:09:49.243Z,1007.46
2017-01-13T07:10:29.827Z,1007.45
2017-01-13T07:11:10.408Z,1007.46
2017-01-13T07:11:51.021Z,1007.44
2017-01-13T07:12:31.592Z,1007.45
2017-01-13T07:13:12.193Z,1007.46
2017-01-13T07:13:52.799Z,1007.41
2017-01-13T07:14:33.379Z,1007.43
2017-01-13T07:15:13.964Z,1007.46
2017-01-13T07:15:54.579Z,1007.45
2017-01-13T07:16:35.159Z,1007.47
2017-01-13T07:17:15.756Z,1007.47
2017-01-13T07:17:56.348Z,1007.52
2017-01-13T07:18:36.927Z,1007.5
2017-01-13T07:19:17.515Z,1007.55
2017-01-13T07:19:58.104Z,1007.51
2017-01-13T07:20:38.705Z,1007.53
2017-01-13T07:21:19.314Z,1007.49
2017-01-13T07:21:59.908Z,1007.55
2017-01-13T07:22:40.495Z,1007.57
2017-01-13T07:23:21.106Z,1007.6
2017-01-13T07:24:01.697Z,1007.59
2017-01-13T07:24:42.287Z,1007.59
2017-01-13T07:25:22.882Z,1007.6
2017-01-13T07:26:03.468Z,1007.64
2017-01-13T07:26:44.056Z,1007.68
2017-01-13T07:27:24.657Z,1007.69
2017-01-13T07:28:05.296Z,1007.66
2017-01-13T07:28:45.907Z,1007.65
2017-01-13T07:29:26.498Z,1007.74
2017-01-13T07:30:07.085Z,1007.7
2017-01-13T07:30:47.670Z,1007.71
2017-01-13T07:31:28.274Z,1007.74
2017-01-13T07:32:08.870Z,1007.73
2017-01-13T07:32:49.472Z,1007.72
2017-01-13T07:33:30.071Z,1007.74
2017-01-13T07:34:10.668Z,1007.76
2017-01-13T07:34:51.282Z,1007.75
2017-01-13T07:35:31.887Z,1007.79
2017-01-13T07:36:12.471Z,1007.82
2017-01-13T07:36:53.051Z,1007.8
2017-01-13T07:37:33.636Z,1007.82
2017-01-13T07:38:14.241Z,1007.82
2017-01-13T07:38:54.836Z,1007.82
2017-01-13T07:39:35.419Z,1007.81
2017-01-13T07:40:16.044Z,1007.86
2017-01-13T07:40:56.653Z,1007.83
2017-01-13T07:41:37.247Z,1007.84
2017-01-13T07:42:17.846Z,1007.87
2017-01-13T07:42:58.436Z,1007.87
2017-01-13T07:43:39.053Z,1007.87
2017-01-13T07:44:19.638Z,1007.88
2017-01-13T07:45:00.226Z,1007.88
2017-01-13T07:45:40.840Z,1007.94
2017-01-13T07:46:21.458Z,1007.92
2017-01-13T07:47:02.079Z,1007.95
2017-01-13T07:47:42.664Z,1008.02
2017-01-13T07:48:23.260Z,1008.02
2017-01-13T07:49:03.881Z,1008.05
2017-01-13T07:49:44.490Z,1008.12
2017-01-13T07:50:25.099Z,1008.06
2017-01-13T07:51:05.686Z,1008.12
2017-01-13T07:51:46.282Z,1008.11
2017-01-13T07:52:26.893Z,1008.08
2017-01-13T07:53:07.482Z,1008.13
2017-01-13T07:53:48.082Z,1008.11
2017-01-13T07:54:28.683Z,1008.05
2017-01-13T07:55:09.298Z,1008.13
2017-01-13T07:55:49.885Z,1008.13
2017-01-13T07:56:30.542Z,1008.13
2017-01-13T07:57:11.145Z,1008.17
2017-01-13T07:57:51.762Z,1008.17
2017-01-13T07:58:32.362Z,1008.23
2017-01-13T07:59:12.978Z,1008.2
2017-01-13T07:59:53.561Z,1008.19
2017-01-13T08:00:34.168Z,1008.2
2017-01-13T08:01:14.762Z,1008.23
2017-01-13T08:01:55.357Z,1008.21
2017-01-13T08:02:35.962Z,1008.2
2017-01-13T08:03:16.572Z,1008.23
2017-01-13T08:03:57.171Z,1008.24
2017-01-13T08:04:37.767Z,1008.13
2017-01-13T08:05:18.381Z,1008.09
2017-01-13T08:05:58.969Z,1008.07
2017-01-13T08:06:39.578Z,1008.11
2017-01-13T08:07:20.194Z,1008.16
2017-01-13T08:08:00.786Z,1008.2
2017-01-13T08:08:41.383Z,1008.19
2017-01-13T08:09:21.986Z,1008.2
2017-01-13T08:10:02.594Z,1008.18
2017-01-13T08:10:43.218Z,1008.2
2017-01-13T08:11:23.798Z,1008.17
2017-01-13T08:12:05.025Z,1008.17
2017-01-13T08:12:45.006Z,1008.15